Terminal Aerodrome Forecast
Issued by NWS Wakefield, VA

Current Version | Previous Version | Text Only | Print | Product List | Glossary On
Versions: 1 2 3 4 5 6 7 8 9 10 11 12 13 14 15 16 17 18
938
FTUS41 KAKQ 312339
TAFECG
TAF
KECG 312339Z 0100/0124 15005KT P6SM SCT120
     FM010600 20005KT P6SM BKN120
     FM011500 27005KT P6SM BKN120
     FM012000 13005KT P6SM BKN040=

USA.gov is the U.S. government's official web portal to all federal, state and local government web resources and services.